Beckley, WV

12:21 PM EDT on May 27, 2015 (GMT -0400)
Southeast Beckley | | Change Station
CLOSE
Current Station
Personal Weather Station
Location: Beckley, WV
Elevation: 2365 ft
Nearby Weather Stations

Elev 2365 ft 37.76 °N, 81.16 °W | Updated 3 seconds ago

Partly Cloudy
Partly Cloudy
75.6 °F
Feels Like 78 °F
N
6.3
Wind Variable Wind from West
Gusts 6.3 mph

Today
High -- | Low -- °F
--% Chance of Precip.
Yesterday
High -- | Low -- °F
Precip. -- in
6:06 AM 8:37 PM
Waxing Gibbous, 68% visible
Pressure 30.17 in
Visibility 10.0 miles
Clouds Scattered Clouds 3700 ft
Scattered Clouds 4700 ft
Heat Index 78 °F
Dew Point 62 °F
Humidity 63%
Rainfall 0.08 in
Snow Depth Not available.
UV 9 out of 12
Pollen 2.60 out of 12
Air Quality Not available.
Flu Activity Sporadic
METAR KBKW 271551Z AUTO 27006KT 10SM SCT037 SCT047 24/14 A3027 RMK AO2 SLP216 T02390139

More Conditions Fewer Conditions

Pressure 30.17 in
Visibility 10.0 miles
Clouds Scattered Clouds 3700 ft
Scattered Clouds 4700 ft
Heat Index 78 °F
Dew Point 62 °F
Humidity 63%
Rainfall 0.08 in
Snow Depth Not available.
UV 9 out of 12
Pollen 2.60 out of 12
Air Quality Not available.
Flu Activity Sporadic
METAR KBKW 271551Z AUTO 27006KT 10SM SCT037 SCT047 24/14 A3027 RMK AO2 SLP216 T02390139

More Conditions Fewer Conditions

10-Day Weather Forecast

Almanac

Astronomy

May. 27, 2015 Rise Set
Actual Time
Civil Twilight
Nautical Twilight
Astronomical Twilight
Moon
Length of Visible Light
Length of Day
Tomorrow will be .
, % of the Moon is Illuminated

Today's Extremes

State Highs State Lows

Community

WunderPhotos

Upload Photos

1,824,711 photos uploaded!

WunderBlogs® & News

Nearby

Air Quality

  Air Quality AQ Index Pollutant
Not available.

Snow Depth

Station Depth Elevation

Earthquake Activity

City Distance Mag. Time & Date
Minimum magnitude displayed is 2.5.

Coastal Water Temperatures

Place Temperature

Stations

Nearby Weather Stations

Station Location Temp. Windchill Dew Point Humidity Wind Precip. Elev Updated Type